createdAt,value
2023-05-25T00:01:03.590Z,4.25
2023-05-25T00:03:32.397Z,3.95
2023-05-25T00:06:03.233Z,4.43
2023-05-25T00:10:57.294Z,3.95
2023-05-25T00:13:24.232Z,4.03
2023-05-25T00:15:51.204Z,3.75
2023-05-25T00:18:18.558Z,3.92
2023-05-25T00:20:47.382Z,4.60
2023-05-25T00:23:14.596Z,3.53
2023-05-25T00:25:41.710Z,3.95
2023-05-25T00:28:08.780Z,3.70
2023-05-25T00:30:35.631Z,4.28
2023-05-25T00:33:03.083Z,4.07
2023-05-25T00:35:30.690Z,4.40
2023-05-25T00:37:57.564Z,4.72
2023-05-25T00:40:24.475Z,5.15
2023-05-25T00:42:53.087Z,4.75
2023-05-25T00:45:20.074Z,4.60
2023-05-25T00:47:51.890Z,4.35
2023-05-25T00:50:30.407Z,4.32
2023-05-25T00:52:57.550Z,5.05
2023-05-25T00:55:25.994Z,4.95
2023-05-25T00:57:55.102Z,5.53
2023-05-25T01:00:23.809Z,5.13
2023-05-25T01:02:53.134Z,4.38
2023-05-25T01:07:49.202Z,4.00
2023-05-25T01:10:17.437Z,4.28
2023-05-25T01:12:46.631Z,5.10
2023-05-25T01:15:13.796Z,4.32
2023-05-25T01:17:41.657Z,4.38
2023-05-25T01:20:11.620Z,4.97
2023-05-25T01:22:54.427Z,4.25
2023-05-25T01:25:47.167Z,4.75
2023-05-25T01:28:23.096Z,4.47
2023-05-25T01:30:50.878Z,4.75
2023-05-25T01:33:19.282Z,5.18
2023-05-25T01:35:47.571Z,5.13
2023-05-25T01:38:14.852Z,5.00
2023-05-25T01:40:41.773Z,5.38
2023-05-25T01:43:08.678Z,5.32
2023-05-25T01:45:36.751Z,4.68
2023-05-25T01:48:04.199Z,4.40
2023-05-25T01:50:43.504Z,5.50
2023-05-25T01:53:13.823Z,5.38
2023-05-25T01:58:15.848Z,5.68
2023-05-25T02:00:43.842Z,5.80
2023-05-25T02:03:12.305Z,5.35
2023-05-25T02:05:42.046Z,5.00
2023-05-25T02:08:09.216Z,5.50
2023-05-25T02:10:36.105Z,4.55
2023-05-25T02:13:03.046Z,4.95
2023-05-25T02:15:32.599Z,5.35
2023-05-25T02:18:03.134Z,5.00
2023-05-25T02:20:31.639Z,4.38
2023-05-25T02:22:58.675Z,4.15
2023-05-25T02:25:25.755Z,4.88
2023-05-25T02:27:52.676Z,4.68
2023-05-25T02:30:20.792Z,5.10
2023-05-25T02:32:47.755Z,5.20
2023-05-25T02:35:14.706Z,4.88
2023-05-25T02:37:44.319Z,5.68
2023-05-25T02:40:12.093Z,4.95
2023-05-25T02:42:38.977Z,4.95
2023-05-25T02:45:10.464Z,5.10
2023-05-25T02:47:38.286Z,5.95
2023-05-25T02:50:05.827Z,5.22
2023-05-25T02:52:37.295Z,5.47
2023-05-25T02:55:06.036Z,4.40
2023-05-25T02:57:38.988Z,5.00
2023-05-25T03:00:08.390Z,5.72
2023-05-25T03:02:36.440Z,5.18
2023-05-25T03:05:04.522Z,4.68
2023-05-25T03:07:32.676Z,5.40
2023-05-25T03:09:59.692Z,4.70
2023-05-25T03:12:26.792Z,6.55
2023-05-25T03:14:53.821Z,5.63
2023-05-25T03:17:22.209Z,6.15
2023-05-25T03:19:49.145Z,6.68
2023-05-25T03:22:16.402Z,5.82
2023-05-25T03:24:45.132Z,6.28
2023-05-25T03:27:12.112Z,5.88
2023-05-25T03:29:39.042Z,5.50
2023-05-25T03:32:06.435Z,4.50
2023-05-25T03:34:35.433Z,6.22
2023-05-25T03:37:04.190Z,5.10
2023-05-25T03:39:31.450Z,5.65
2023-05-25T03:41:58.497Z,5.88
2023-05-25T03:44:25.811Z,5.90
2023-05-25T03:46:53.689Z,5.10
2023-05-25T03:49:20.654Z,5.05
2023-05-25T03:51:47.625Z,5.20
2023-05-25T03:54:14.806Z,5.70
2023-05-25T03:56:42.180Z,5.13
2023-05-25T03:59:09.075Z,5.85
2023-05-25T04:01:38.187Z,4.90
2023-05-25T04:04:06.167Z,5.80
2023-05-25T04:06:33.961Z,5.72
2023-05-25T04:09:01.383Z,5.07
2023-05-25T04:11:29.181Z,4.75
2023-05-25T04:13:56.274Z,5.07
2023-05-25T04:16:26.624Z,5.93
2023-05-25T04:18:54.709Z,6.20
2023-05-25T04:21:22.089Z,6.65
2023-05-25T04:23:49.959Z,6.72
2023-05-25T04:26:17.552Z,6.10
2023-05-25T04:28:48.235Z,6.17
2023-05-25T04:31:28.745Z,6.18
2023-05-25T04:34:15.153Z,5.90
2023-05-25T04:36:53.188Z,6.28
2023-05-25T04:39:20.562Z,6.68
2023-05-25T04:41:53.349Z,6.40
2023-05-25T04:44:20.628Z,6.43
2023-05-25T04:46:52.287Z,7.07
2023-05-25T04:49:28.920Z,6.00
2023-05-25T04:51:56.016Z,6.57
2023-05-25T04:54:49.564Z,6.70
2023-05-25T04:57:16.856Z,5.25
2023-05-25T04:59:44.019Z,6.00
2023-05-25T05:02:11.558Z,6.53
2023-05-25T05:04:40.035Z,6.13
2023-05-25T05:07:09.297Z,6.80
2023-05-25T05:09:36.224Z,7.35
2023-05-25T05:12:03.455Z,6.90
2023-05-25T05:14:35.796Z,8.23
2023-05-25T05:17:03.479Z,7.15
2023-05-25T05:19:31.417Z,7.25
2023-05-25T05:21:58.448Z,6.40
2023-05-25T05:24:27.391Z,7.03
2023-05-25T05:26:58.760Z,6.70
2023-05-25T05:29:38.578Z,7.15
2023-05-25T05:32:05.919Z,6.45
2023-05-25T05:34:33.245Z,7.20
2023-05-25T05:37:04.293Z,7.93
2023-05-25T05:39:32.053Z,8.05
2023-05-25T05:41:59.548Z,9.10
2023-05-25T05:44:29.267Z,9.18
2023-05-25T05:49:30.841Z,9.70
2023-05-25T05:51:58.718Z,9.98
2023-05-25T05:54:27.989Z,8.55
2023-05-25T05:56:56.027Z,9.50
2023-05-25T05:59:23.207Z,10.30
2023-05-25T06:01:50.497Z,9.70
2023-05-25T06:04:17.466Z,10.32
2023-05-25T06:06:45.423Z,9.65
2023-05-25T06:09:12.726Z,10.05
2023-05-25T06:11:40.253Z,10.40
2023-05-25T06:14:08.153Z,12.80
2023-05-25T06:16:36.580Z,11.25
2023-05-25T06:19:04.025Z,10.90
2023-05-25T06:21:31.091Z,11.05
2023-05-25T06:23:58.055Z,10.52
2023-05-25T06:26:25.094Z,10.63
2023-05-25T06:28:52.375Z,14.23
2023-05-25T06:31:19.327Z,14.95
2023-05-25T06:33:46.386Z,15.52
2023-05-25T06:36:15.685Z,14.15
2023-05-25T06:38:43.690Z,14.10
2023-05-25T06:41:15.182Z,14.95
2023-05-25T06:43:43.249Z,14.95
2023-05-25T06:46:26.110Z,14.25
2023-05-25T06:48:53.098Z,14.48
2023-05-25T06:51:20.000Z,14.40
2023-05-25T06:53:46.878Z,14.38
2023-05-25T06:56:13.793Z,13.95
2023-05-25T06:58:40.963Z,12.88
2023-05-25T07:01:07.965Z,14.48
2023-05-25T07:03:35.021Z,12.63
2023-05-25T07:06:01.997Z,11.65
2023-05-25T07:08:28.893Z,12.35
2023-05-25T07:10:55.749Z,12.38
2023-05-25T07:13:22.816Z,12.45
2023-05-25T07:15:50.121Z,13.18
2023-05-25T07:18:17.027Z,14.07
2023-05-25T07:20:44.322Z,12.73
2023-05-25T07:23:12.212Z,12.07
2023-05-25T07:25:40.721Z,13.90
2023-05-25T07:28:08.610Z,12.25
2023-05-25T07:30:35.689Z,12.55
2023-05-25T07:33:02.602Z,13.35
2023-05-25T07:35:29.658Z,12.82
2023-05-25T07:38:01.518Z,14.13
2023-05-25T07:40:28.580Z,13.95
2023-05-25T07:42:55.519Z,14.27
2023-05-25T07:45:23.033Z,15.73
2023-05-25T07:47:50.122Z,14.90
2023-05-25T07:50:17.337Z,14.25
2023-05-25T07:52:44.413Z,14.40
2023-05-25T07:55:11.436Z,15.90
2023-05-25T07:57:38.380Z,15.60
2023-05-25T08:00:08.659Z,14.65
2023-05-25T08:02:41.914Z,14.60
2023-05-25T08:05:10.147Z,15.25
2023-05-25T08:07:37.220Z,13.57
2023-05-25T08:10:04.871Z,14.65
2023-05-25T08:12:46.858Z,14.90
2023-05-25T08:15:15.474Z,14.27
2023-05-25T08:17:42.560Z,14.32
2023-05-25T08:20:10.732Z,14.52
2023-05-25T08:22:38.009Z,13.45
2023-05-25T08:25:05.385Z,15.02
2023-05-25T08:27:35.225Z,13.27
2023-05-25T08:30:03.012Z,13.07
2023-05-25T08:32:29.934Z,14.43
2023-05-25T08:34:57.098Z,14.15
2023-05-25T08:37:24.955Z,14.75
2023-05-25T08:39:52.042Z,13.82
2023-05-25T08:42:18.980Z,13.85
2023-05-25T08:44:45.965Z,13.30
2023-05-25T08:47:15.313Z,13.52
2023-05-25T08:49:44.792Z,14.77
2023-05-25T08:52:14.929Z,12.98
2023-05-25T08:54:45.067Z,13.40
2023-05-25T08:57:25.661Z,11.90
2023-05-25T09:00:10.710Z,12.68
2023-05-25T09:02:56.586Z,12.15
2023-05-25T09:05:24.125Z,11.10
2023-05-25T09:07:51.688Z,11.95
2023-05-25T09:10:18.966Z,11.43
2023-05-25T09:12:48.091Z,11.30
2023-05-25T09:15:15.494Z,11.43
2023-05-25T09:17:42.455Z,11.75
2023-05-25T09:20:13.935Z,11.50
2023-05-25T09:22:42.161Z,10.95
2023-05-25T09:25:11.425Z,11.82
2023-05-25T09:27:38.721Z,9.32
2023-05-25T09:30:06.940Z,10.25
2023-05-25T09:32:34.099Z,11.13
2023-05-25T09:35:07.758Z,11.25
2023-05-25T09:37:35.601Z,10.13
2023-05-25T09:40:03.269Z,9.52
2023-05-25T09:42:30.179Z,9.45
2023-05-25T09:44:59.537Z,9.48
2023-05-25T09:47:27.621Z,9.47
2023-05-25T09:49:56.031Z,10.70
2023-05-25T09:52:23.526Z,10.15
2023-05-25T09:54:51.659Z,10.50
2023-05-25T09:57:21.539Z,10.18
2023-05-25T09:59:48.461Z,11.10
2023-05-25T10:02:15.905Z,9.35
2023-05-25T10:04:43.086Z,9.98
2023-05-25T10:07:10.072Z,9.32
2023-05-25T10:09:43.067Z,11.18
2023-05-25T10:12:11.292Z,9.05
2023-05-25T10:14:39.160Z,9.98
2023-05-25T10:17:09.866Z,11.25
2023-05-25T10:19:42.061Z,10.07
2023-05-25T10:22:36.251Z,10.55
2023-05-25T10:25:03.069Z,10.80
2023-05-25T10:27:38.815Z,9.55
2023-05-25T10:30:07.342Z,9.50
2023-05-25T10:32:37.046Z,9.80
2023-05-25T10:35:06.106Z,9.23
2023-05-25T10:37:35.094Z,10.07
2023-05-25T10:40:03.664Z,10.77
2023-05-25T10:42:31.042Z,10.90
2023-05-25T10:44:58.581Z,11.00
2023-05-25T10:47:26.077Z,11.43
2023-05-25T10:49:54.155Z,10.23
2023-05-25T10:52:22.147Z,10.32
2023-05-25T10:54:49.559Z,9.65
2023-05-25T10:57:21.965Z,10.23
2023-05-25T10:59:55.927Z,9.55
2023-05-25T11:02:23.588Z,9.70
2023-05-25T11:04:50.931Z,9.98
2023-05-25T11:07:21.718Z,9.18
2023-05-25T11:09:58.967Z,8.60
2023-05-25T11:12:26.900Z,8.48
2023-05-25T11:15:23.165Z,9.38
2023-05-25T11:18:01.255Z,9.95
2023-05-25T11:20:30.224Z,9.45
2023-05-25T11:22:57.992Z,9.77
2023-05-25T11:25:43.219Z,8.15
2023-05-25T11:28:12.006Z,9.00
2023-05-25T11:30:41.415Z,7.93
2023-05-25T11:33:09.185Z,7.72
2023-05-25T11:35:39.063Z,8.02
2023-05-25T11:38:07.936Z,6.85
2023-05-25T11:40:36.336Z,7.25
2023-05-25T11:43:06.441Z,6.47
2023-05-25T11:45:38.156Z,7.43
2023-05-25T11:48:05.969Z,5.82
2023-05-25T11:50:33.333Z,6.30
2023-05-25T11:53:00.695Z,6.05
2023-05-25T11:55:27.782Z,6.53
2023-05-25T11:57:58.212Z,5.63
2023-05-25T12:00:27.645Z,5.47
2023-05-25T12:02:54.877Z,4.73
2023-05-25T12:05:23.357Z,5.65
2023-05-25T12:07:50.750Z,5.38
2023-05-25T12:10:18.247Z,5.03
2023-05-25T12:12:48.884Z,5.82
2023-05-25T12:15:21.130Z,6.20
2023-05-25T12:17:49.115Z,6.45
2023-05-25T12:20:17.480Z,5.93
2023-05-25T12:22:45.757Z,6.78
2023-05-25T12:25:14.508Z,5.60
2023-05-25T12:27:41.819Z,6.28
2023-05-25T12:30:10.379Z,6.65
2023-05-25T12:33:02.860Z,5.05
2023-05-25T12:35:44.066Z,5.75
2023-05-25T12:38:12.629Z,5.63
2023-05-25T12:40:40.612Z,5.50
2023-05-25T12:43:07.633Z,5.15
2023-05-25T12:45:39.252Z,5.60
2023-05-25T12:48:06.213Z,5.47
2023-05-25T12:50:33.719Z,5.13
2023-05-25T12:53:02.453Z,4.45
2023-05-25T12:55:35.522Z,4.82
2023-05-25T12:58:05.466Z,5.15
2023-05-25T13:00:36.402Z,5.53
2023-05-25T13:03:04.895Z,4.43
2023-05-25T13:05:34.103Z,4.68
2023-05-25T13:08:05.321Z,5.40
2023-05-25T13:10:33.349Z,4.90
2023-05-25T13:13:01.192Z,5.65
2023-05-25T13:15:28.734Z,5.68
2023-05-25T13:17:58.426Z,5.22
2023-05-25T13:20:26.869Z,4.97
2023-05-25T13:22:55.975Z,5.38
2023-05-25T13:25:23.336Z,5.20
2023-05-25T13:27:51.810Z,5.30
2023-05-25T13:30:20.722Z,4.65
2023-05-25T13:32:50.333Z,4.57
2023-05-25T13:35:19.362Z,4.90
2023-05-25T13:37:46.592Z,4.57
2023-05-25T13:40:14.014Z,4.97
2023-05-25T13:42:41.783Z,4.93
2023-05-25T13:45:09.375Z,5.03
2023-05-25T13:47:36.338Z,5.45
2023-05-25T13:50:04.579Z,5.18
2023-05-25T13:52:31.734Z,5.40
2023-05-25T13:54:58.819Z,5.05
2023-05-25T13:57:25.976Z,5.30
2023-05-25T13:59:52.868Z,4.35
2023-05-25T14:02:19.873Z,4.63
2023-05-25T14:04:46.910Z,5.22
2023-05-25T14:07:14.190Z,5.28
2023-05-25T14:09:41.596Z,5.20
2023-05-25T14:12:09.105Z,4.50
2023-05-25T14:14:36.215Z,4.43
2023-05-25T14:17:03.127Z,4.80
2023-05-25T14:19:30.037Z,4.75
2023-05-25T14:22:11.758Z,4.50
2023-05-25T14:24:39.971Z,5.15
2023-05-25T14:27:09.794Z,5.22
2023-05-25T14:29:36.921Z,5.63
2023-05-25T14:32:04.128Z,5.45
2023-05-25T14:34:31.062Z,5.32
2023-05-25T14:36:57.946Z,5.72
2023-05-25T14:39:25.387Z,6.82
2023-05-25T14:41:52.401Z,6.20
2023-05-25T14:44:19.283Z,5.47
2023-05-25T14:46:46.415Z,5.55
2023-05-25T14:49:13.805Z,5.80
2023-05-25T14:51:40.756Z,5.95
2023-05-25T14:54:08.093Z,7.53
2023-05-25T14:56:35.179Z,5.68
2023-05-25T14:59:02.599Z,5.82
2023-05-25T15:01:29.955Z,6.13
2023-05-25T15:03:57.290Z,4.85
2023-05-25T15:06:24.427Z,5.40
2023-05-25T15:08:51.512Z,5.57
2023-05-25T15:11:18.580Z,6.00
2023-05-25T15:13:46.117Z,6.15
2023-05-25T15:16:14.826Z,6.45
2023-05-25T15:18:41.920Z,6.25
2023-05-25T15:21:09.361Z,5.78
2023-05-25T15:23:36.598Z,5.43
2023-05-25T15:26:07.862Z,6.13
2023-05-25T15:28:35.429Z,5.68
2023-05-25T15:31:03.408Z,5.10
2023-05-25T15:33:47.820Z,6.05
2023-05-25T15:36:19.132Z,5.53
2023-05-25T15:38:49.474Z,4.95
2023-05-25T15:41:17.410Z,5.18
2023-05-25T15:43:54.305Z,6.13
2023-05-25T15:46:21.507Z,5.20
2023-05-25T15:48:49.287Z,5.35
2023-05-25T15:51:16.530Z,5.38
2023-05-25T15:53:43.575Z,6.07
2023-05-25T15:56:11.245Z,5.65
2023-05-25T15:58:38.301Z,5.20
2023-05-25T16:01:05.570Z,5.50
2023-05-25T16:03:33.237Z,5.18
2023-05-25T16:06:00.194Z,4.78
2023-05-25T16:08:27.099Z,5.28
2023-05-25T16:10:53.985Z,5.38
2023-05-25T16:13:20.959Z,6.03
2023-05-25T16:15:47.923Z,4.78
2023-05-25T16:18:16.671Z,5.47
2023-05-25T16:20:44.201Z,4.95
2023-05-25T16:23:11.214Z,4.85
2023-05-25T16:25:38.193Z,4.72
2023-05-25T16:28:05.131Z,4.47
2023-05-25T16:30:31.987Z,4.72
2023-05-25T16:32:58.922Z,4.80
2023-05-25T16:35:25.834Z,5.20
2023-05-25T16:37:52.736Z,5.75
2023-05-25T16:40:19.654Z,4.43
2023-05-25T16:42:46.558Z,5.10
2023-05-25T16:45:13.498Z,4.65
2023-05-25T16:47:40.684Z,4.93
2023-05-25T16:50:08.269Z,5.00
2023-05-25T16:52:35.702Z,4.93
2023-05-25T16:55:02.629Z,3.95
2023-05-25T16:57:29.587Z,4.88
2023-05-25T16:59:56.434Z,4.45
2023-05-25T17:02:23.409Z,4.53
2023-05-25T17:04:50.388Z,3.72
2023-05-25T17:07:17.877Z,4.18
2023-05-25T17:09:44.757Z,5.28
2023-05-25T17:12:11.703Z,4.07
2023-05-25T17:14:38.581Z,4.43
2023-05-25T17:17:05.543Z,5.07
2023-05-25T17:19:32.552Z,3.60
2023-05-25T17:21:59.413Z,4.50
2023-05-25T17:24:26.272Z,4.00
2023-05-25T17:26:53.244Z,4.15
2023-05-25T17:29:20.248Z,5.03
2023-05-25T17:31:48.757Z,4.57
2023-05-25T17:34:16.644Z,4.07
2023-05-25T17:36:43.588Z,4.65
2023-05-25T17:39:10.766Z,4.80
2023-05-25T17:41:37.780Z,3.50
2023-05-25T17:44:04.697Z,4.50
2023-05-25T17:46:31.644Z,3.85
2023-05-25T17:48:58.576Z,3.63
2023-05-25T17:51:25.807Z,3.47
2023-05-25T17:53:52.655Z,3.88
2023-05-25T17:56:19.539Z,4.00
2023-05-25T17:58:47.656Z,3.65
2023-05-25T18:01:16.088Z,4.22
2023-05-25T18:03:43.351Z,3.60
2023-05-25T18:06:10.821Z,3.38
2023-05-25T18:08:37.722Z,3.28
2023-05-25T18:11:05.304Z,4.25
2023-05-25T18:13:32.218Z,3.83
2023-05-25T18:15:59.723Z,3.20
2023-05-25T18:18:26.565Z,3.35
2023-05-25T18:20:53.693Z,3.33
2023-05-25T18:23:22.255Z,3.22
2023-05-25T18:25:49.566Z,3.33
2023-05-25T18:28:16.648Z,3.25
2023-05-25T18:30:43.841Z,3.70
2023-05-25T18:33:10.897Z,2.90
2023-05-25T18:35:38.927Z,3.10
2023-05-25T18:38:06.868Z,3.30
2023-05-25T18:40:34.206Z,3.20
2023-05-25T18:43:01.174Z,3.42
2023-05-25T18:45:28.068Z,3.55
2023-05-25T18:47:54.977Z,4.78
2023-05-25T18:50:21.977Z,3.58
2023-05-25T18:52:51.281Z,3.05
2023-05-25T18:55:19.208Z,3.00
2023-05-25T18:57:46.848Z,3.28
2023-05-25T19:00:14.440Z,3.08
2023-05-25T19:02:41.626Z,3.05
2023-05-25T19:05:11.768Z,3.95
2023-05-25T19:07:54.713Z,3.33
2023-05-25T19:10:25.584Z,3.13
2023-05-25T19:12:52.495Z,3.13
2023-05-25T19:15:19.470Z,3.08
2023-05-25T19:17:47.046Z,3.08
2023-05-25T19:20:14.729Z,3.42
2023-05-25T19:22:42.028Z,3.20
2023-05-25T19:25:09.288Z,4.07
2023-05-25T19:27:36.491Z,3.40
2023-05-25T19:30:04.000Z,3.05
2023-05-25T19:32:31.147Z,3.70
2023-05-25T19:35:00.677Z,3.72
2023-05-25T19:37:27.602Z,3.73
2023-05-25T19:39:54.482Z,10.45
2023-05-25T19:42:21.748Z,7.47
2023-05-25T19:44:48.683Z,4.05
2023-05-25T19:47:15.726Z,4.35
2023-05-25T19:49:42.893Z,3.47
2023-05-25T19:52:10.052Z,3.42
2023-05-25T19:54:36.998Z,3.92
2023-05-25T19:57:03.982Z,3.85
2023-05-25T19:59:31.542Z,3.83
2023-05-25T20:01:58.918Z,3.55
2023-05-25T20:04:26.036Z,3.58
2023-05-25T20:06:53.957Z,3.53
2023-05-25T20:09:29.512Z,8.38
2023-05-25T20:12:01.052Z,9.73
2023-05-25T20:14:28.051Z,6.57
2023-05-25T20:16:55.943Z,4.20
2023-05-25T20:19:23.304Z,4.25
2023-05-25T20:21:50.469Z,4.13
2023-05-25T20:24:17.626Z,4.72
2023-05-25T20:26:44.567Z,5.15
2023-05-25T20:29:11.680Z,4.50
2023-05-25T20:31:38.954Z,5.00
2023-05-25T20:34:06.460Z,4.43
2023-05-25T20:36:33.375Z,4.85
2023-05-25T20:39:00.463Z,4.07
2023-05-25T20:41:28.221Z,4.80
2023-05-25T20:43:55.132Z,4.55
2023-05-25T20:46:22.329Z,4.45
2023-05-25T20:48:49.724Z,4.57
2023-05-25T20:51:16.819Z,4.68
2023-05-25T20:53:43.716Z,4.38
2023-05-25T20:56:10.630Z,4.43
2023-05-25T20:58:37.639Z,4.18
2023-05-25T21:01:06.005Z,3.75
2023-05-25T21:03:32.994Z,3.92
2023-05-25T21:06:00.643Z,4.88
2023-05-25T21:08:27.645Z,5.28
2023-05-25T21:10:55.045Z,3.95
2023-05-25T21:13:21.902Z,5.68
2023-05-25T21:15:48.993Z,4.30
2023-05-25T21:18:16.111Z,4.45
2023-05-25T21:20:43.864Z,4.43
2023-05-25T21:23:10.876Z,4.53
2023-05-25T21:25:37.760Z,4.57
2023-05-25T21:28:06.805Z,4.38
2023-05-25T21:30:33.717Z,4.00
2023-05-25T21:33:00.741Z,4.30
2023-05-25T21:35:27.709Z,4.25
2023-05-25T21:37:54.600Z,3.88
2023-05-25T21:40:21.485Z,3.85
2023-05-25T21:42:51.106Z,3.53
2023-05-25T21:45:18.211Z,3.80
2023-05-25T21:47:45.705Z,3.63
2023-05-25T21:50:12.603Z,4.07
2023-05-25T21:52:39.551Z,3.92
2023-05-25T21:55:07.023Z,3.40
2023-05-25T21:57:33.912Z,3.78
2023-05-25T22:00:01.632Z,4.90
2023-05-25T22:02:29.088Z,5.05
2023-05-25T22:04:56.009Z,4.57
2023-05-25T22:07:23.038Z,3.75
2023-05-25T22:09:49.958Z,4.20
2023-05-25T22:12:16.887Z,3.65
2023-05-25T22:14:43.863Z,4.47
2023-05-25T22:17:10.933Z,4.18
2023-05-25T22:19:38.074Z,4.57
2023-05-25T22:22:05.113Z,3.80
2023-05-25T22:24:31.960Z,3.97
2023-05-25T22:26:59.307Z,4.32
2023-05-25T22:29:26.279Z,4.60
2023-05-25T22:31:53.613Z,4.60
2023-05-25T22:34:20.787Z,4.47
2023-05-25T22:36:48.116Z,4.35
2023-05-25T22:39:15.153Z,5.05
2023-05-25T22:41:42.000Z,3.90
2023-05-25T22:44:08.912Z,3.80
2023-05-25T22:46:35.983Z,5.53
2023-05-25T22:49:02.887Z,4.40
2023-05-25T22:51:29.841Z,4.57
2023-05-25T22:53:56.715Z,4.57
2023-05-25T22:56:23.606Z,3.70
2023-05-25T22:58:50.857Z,3.65
2023-05-25T23:01:18.225Z,4.13
2023-05-25T23:03:45.788Z,3.88
2023-05-25T23:06:12.888Z,3.97
2023-05-25T23:08:39.831Z,4.55
2023-05-25T23:11:07.075Z,4.45
2023-05-25T23:13:34.369Z,3.92
2023-05-25T23:16:01.706Z,4.32
2023-05-25T23:18:28.990Z,4.82
2023-05-25T23:20:56.283Z,3.67
2023-05-25T23:23:23.517Z,4.95
2023-05-25T23:25:50.409Z,4.45
2023-05-25T23:28:17.469Z,5.45
2023-05-25T23:30:44.785Z,4.28
2023-05-25T23:33:12.157Z,4.28
2023-05-25T23:35:39.107Z,6.07
2023-05-25T23:38:06.442Z,4.60
2023-05-25T23:40:33.271Z,4.03
2023-05-25T23:43:00.336Z,4.85
2023-05-25T23:45:27.347Z,3.88
2023-05-25T23:47:54.893Z,4.78
2023-05-25T23:50:21.852Z,4.72
2023-05-25T23:52:49.169Z,4.53
2023-05-25T23:55:16.130Z,4.53
2023-05-25T23:57:43.079Z,4.40
